Time;durP1;ratioP1;P1;durP2;ratioP2;P2;SDS_P1;SDS_P2;PMS_P1;PMS_P2;Temp;Humidity;BMP_temperature;BMP_pressure;BME280_temperature;BME280_humidity;BME280_pressure;Samples;Min_cycle;Max_cycle;Signal;HPM_P1;HPM_P2
2022/04/23 00:01:17;;;;;;;23.15;17.13;;;;;;;5.74;100.00;101289.38;5030330;28;20169;-47
2022/04/23 00:03:43;;;;;;;24.92;17.77;;;;;;;5.75;100.00;101280.53;5030638;28;20176;-46
2022/04/23 00:06:08;;;;;;;23.13;16.95;;;;;;;5.78;100.00;101287.56;5030591;28;20168;-47
2022/04/23 00:08:33;;;;;;;25.92;17.88;;;;;;;5.83;100.00;101284.84;5030196;28;20199;-47
2022/04/23 00:11:01;;;;;;;22.90;17.27;;;;;;;5.85;100.00;101286.59;5030367;28;20164;-46
2022/04/23 00:13:27;;;;;;;24.27;18.65;;;;;;;5.78;100.00;101284.91;5030563;28;20174;-46
2022/04/23 00:15:53;;;;;;;26.83;18.52;;;;;;;5.74;100.00;101278.75;5030387;28;20160;-46
2022/04/23 00:18:19;;;;;;;30.05;19.20;;;;;;;5.67;100.00;101287.69;5030501;28;20200;-48
2022/04/23 00:20:48;;;;;;;28.30;18.95;;;;;;;5.68;100.00;101278.81;5029650;28;20218;-46
2022/04/23 00:23:14;;;;;;;29.08;19.98;;;;;;;5.66;100.00;101285.91;5028479;28;20168;-46
2022/04/23 00:25:42;;;;;;;27.20;19.60;;;;;;;5.66;100.00;101283.25;5030466;28;20643;-47
2022/04/23 00:28:09;;;;;;;23.58;18.85;;;;;;;5.66;100.00;101280.59;5030327;28;20199;-46
2022/04/23 00:30:35;;;;;;;26.20;19.33;;;;;;;5.65;100.00;101281.50;5029746;28;20164;-48
2022/04/23 00:33:02;;;;;;;24.80;19.90;;;;;;;5.65;100.00;101280.63;5030215;28;20202;-47
2022/04/23 00:35:27;;;;;;;24.48;19.33;;;;;;;5.69;100.00;101280.59;5030011;28;20307;-46
2022/04/23 00:37:53;;;;;;;29.98;20.15;;;;;;;5.77;100.00;101278.72;5030004;28;20657;-48
2022/04/23 00:40:20;;;;;;;30.27;20.45;;;;;;;5.63;100.00;101277.09;5029790;28;20249;-46
2022/04/23 00:42:54;;;;;;;29.63;20.27;;;;;;;5.70;100.00;101282.31;5030125;28;20179;-48
2022/04/23 00:45:21;;;;;;;25.77;20.23;;;;;;;5.65;100.00;101283.28;5030140;28;20191;-45
2022/04/23 00:47:46;;;;;;;27.05;20.77;;;;;;;5.65;100.00;101281.50;5029703;28;20213;-46
2022/04/23 00:50:12;;;;;;;29.50;20.92;;;;;;;5.60;100.00;101271.81;5029187;28;20190;-48
2022/04/23 00:52:37;;;;;;;31.80;21.92;;;;;;;5.64;100.00;101271.78;5029977;28;20196;-46
2022/04/23 00:55:04;;;;;;;34.35;22.65;;;;;;;5.61;100.00;101276.25;5030182;28;20230;-47
2022/04/23 00:57:31;;;;;;;32.72;24.25;;;;;;;5.57;100.00;101268.31;5029530;28;20200;-48
2022/04/23 00:59:56;;;;;;;31.83;22.63;;;;;;;5.58;100.00;101285.13;5029959;28;20168;-48
2022/04/23 01:02:22;;;;;;;31.65;22.45;;;;;;;5.65;100.00;101278.84;5029921;28;20179;-48
2022/04/23 01:04:48;;;;;;;30.20;23.13;;;;;;;5.59;100.00;101278.91;5030005;28;20564;-47
2022/04/23 01:07:13;;;;;;;31.40;24.40;;;;;;;5.64;100.00;101274.44;5030067;28;20552;-47
2022/04/23 01:09:39;;;;;;;35.10;23.65;;;;;;;5.62;100.00;101278.91;5028483;28;20206;-47
2022/04/23 01:12:05;;;;;;;27.95;22.48;;;;;;;5.63;100.00;101285.97;5030077;28;20233;-47
2022/04/23 01:14:31;;;;;;;31.33;24.00;;;;;;;5.58;100.00;101293.97;5030085;28;20175;-48
2022/04/23 01:16:56;;;;;;;31.85;23.38;;;;;;;5.54;100.00;101286.06;5029978;28;20565;-47
2022/04/23 01:19:22;;;;;;;31.95;23.83;;;;;;;5.56;100.00;101282.47;5029445;28;20286;-47
2022/04/23 01:21:47;;;;;;;31.50;23.02;;;;;;;5.54;100.00;101283.41;5029560;28;20231;-47
2022/04/23 01:24:15;;;;;;;33.55;23.48;;;;;;;5.51;100.00;101281.66;5029638;28;20187;-47
2022/04/23 01:26:41;;;;;;;32.25;23.45;;;;;;;5.43;100.00;101280.84;5029956;28;20179;-45
2022/04/23 01:29:06;;;;;;;31.77;23.40;;;;;;;5.39;100.00;101287.09;5029747;28;20188;-45
2022/04/23 01:31:32;;;;;;;32.42;22.98;;;;;;;5.41;100.00;101279.97;5029713;28;20180;-47
2022/04/23 01:33:57;;;;;;;32.78;22.00;;;;;;;5.42;100.00;101287.03;5029311;28;20172;-46
2022/04/23 01:36:23;;;;;;;28.63;22.48;;;;;;;5.43;100.00;101288.81;5032792;28;20219;-48
2022/04/23 01:38:48;;;;;;;34.17;23.45;;;;;;;5.35;100.00;101288.88;5033411;28;20704;-47
2022/04/23 01:41:14;;;;;;;34.42;22.73;;;;;;;5.39;100.00;101288.88;5048294;28;20188;-47
2022/04/23 01:43:39;;;;;;;30.98;21.50;;;;;;;5.34;100.00;101286.25;5033224;28;20212;-46
2022/04/23 02:01:12;;;;;;;30.35;22.67;;;;;;;5.32;100.00;101283.59;5032543;28;20750;-47
2022/04/23 02:03:38;;;;;;;36.00;23.52;;;;;;;5.33;100.00;101282.69;5046150;28;20179;-47
2022/04/23 02:06:04;;;;;;;33.05;23.33;;;;;;;5.27;100.00;101277.47;5051092;28;20244;-45
2022/04/23 02:08:30;;;;;;;35.88;24.58;;;;;;;5.17;100.00;101275.78;5052650;28;20199;-47
2022/04/23 02:10:55;;;;;;;35.25;24.73;;;;;;;5.17;100.00;101275.78;5051757;28;20509;-46
2022/04/23 02:13:21;;;;;;;30.75;25.02;;;;;;;5.14;100.00;101292.63;5052198;28;20209;-46
2022/04/23 02:15:47;;;;;;;32.38;24.88;;;;;;;5.13;100.00;101279.34;5052113;28;20167;-46
2022/04/23 02:18:13;;;;;;;31.38;24.77;;;;;;;5.13;100.00;101284.66;5051958;28;20207;-46
2022/04/23 02:20:39;;;;;;;31.60;23.60;;;;;;;5.15;100.00;101283.75;5052074;28;20191;-48
2022/04/23 02:23:06;;;;;;;37.63;25.65;;;;;;;5.07;100.00;101287.34;5050981;28;20610;-47
2022/04/23 02:25:35;;;;;;;32.65;25.65;;;;;;;5.00;100.00;101280.34;5051765;28;20557;-47
2022/04/23 02:28:01;;;;;;;36.88;25.27;;;;;;;5.00;100.00;101280.34;5051704;28;20203;-47
2022/04/23 02:30:26;;;;;;;31.45;25.10;;;;;;;5.00;100.00;101285.66;5052072;28;20179;-46
2022/04/23 02:32:52;;;;;;;30.38;24.25;;;;;;;5.02;100.00;101278.56;5051913;28;20262;-48
2022/04/23 02:35:20;;;;;;;34.42;24.77;;;;;;;5.04;100.00;101282.09;5052423;28;20168;-47
2022/04/23 02:37:48;;;;;;;33.03;23.85;;;;;;;5.03;100.00;101275.00;5051627;28;20657;-48
2022/04/23 02:40:14;;;;;;;32.83;23.35;;;;;;;5.01;100.00;101269.72;5052054;28;20178;-48
2022/04/23 02:42:40;;;;;;;34.85;24.15;;;;;;;5.02;100.00;101270.59;5052435;28;20556;-47
2022/04/23 02:45:07;;;;;;;32.22;24.52;;;;;;;4.96;100.00;101274.16;5050542;28;20273;-48
2022/04/23 02:47:43;;;;;;;35.60;24.13;;;;;;;4.91;100.00;101283.94;5051777;28;20172;-48
2022/04/23 02:50:11;;;;;;;29.92;22.25;;;;;;;4.95;100.00;101297.19;5051214;28;20176;-48
2022/04/23 02:52:39;;;;;;;31.73;22.42;;;;;;;4.94;100.00;101295.44;5052200;28;20623;-48
2022/04/23 02:55:06;;;;;;;32.65;23.30;;;;;;;4.98;100.00;101285.66;5051922;28;20209;-47
2022/04/23 02:57:31;;;;;;;26.80;21.55;;;;;;;4.94;100.00;101295.44;5051771;28;20214;-46
2022/04/23 02:59:56;;;;;;;29.45;21.02;;;;;;;4.93;100.00;101287.47;5051737;28;20175;-46
2022/04/23 03:02:22;;;;;;;26.90;20.70;;;;;;;4.98;100.00;101290.09;5051584;28;20217;-44
2022/04/23 03:04:47;;;;;;;31.83;21.60;;;;;;;4.91;100.00;101289.25;5051568;28;20233;-46
2022/04/23 03:07:13;;;;;;;29.00;20.17;;;;;;;4.88;100.00;101294.59;5051853;28;20185;-44
2022/04/23 03:09:38;;;;;;;26.98;20.73;;;;;;;4.90;100.00;101296.34;5043428;28;20196;-46
2022/04/23 03:12:04;;;;;;;26.58;21.10;;;;;;;4.88;100.00;101297.25;5031217;28;20180;-46
2022/04/23 03:14:31;;;;;;;31.17;21.35;;;;;;;4.94;100.00;101290.13;5031652;28;20183;-45
2022/04/23 03:16:57;;;;;;;30.98;20.88;;;;;;;4.93;100.00;101284.81;5031316;28;20206;-44
2022/04/23 03:19:22;;;;;;;27.90;21.05;;;;;;;5.03;100.00;101286.53;5030946;28;20212;-44
2022/04/23 03:21:48;;;;;;;28.23;20.80;;;;;;;4.93;100.00;101285.69;5031094;28;20533;-44
2022/04/23 03:24:13;;;;;;;27.88;20.00;;;;;;;4.95;100.00;101291.88;5031552;28;20553;-47
2022/04/23 03:26:38;;;;;;;30.08;20.58;;;;;;;4.91;100.00;101289.25;5031234;28;20559;-44
2022/04/23 03:29:04;;;;;;;26.98;19.52;;;;;;;4.94;100.00;101290.13;5031269;28;20202;-46
2022/04/23 03:31:30;;;;;;;25.00;19.55;;;;;;;4.81;100.00;101291.13;5031035;28;20230;-45
2022/04/23 03:33:55;;;;;;;26.83;20.65;;;;;;;4.74;100.00;101287.63;5031016;28;20250;-47
2022/04/23 03:36:21;;;;;;;26.65;19.92;;;;;;;4.75;100.00;101291.16;5030828;28;20180;-44
2022/04/23 03:38:46;;;;;;;23.90;19.70;;;;;;;4.77;100.00;101299.09;5030579;28;20215;-46
2022/04/23 03:41:12;;;;;;;28.95;20.80;;;;;;;4.71;100.00;101294.72;5030722;28;20188;-45
2022/04/23 03:43:37;;;;;;;30.50;21.17;;;;;;;4.69;100.00;101292.06;5030587;28;20232;-45
2022/04/23 03:46:03;;;;;;;29.20;20.48;;;;;;;4.69;100.00;101289.41;5031119;28;20616;-45
2022/04/23 03:48:28;;;;;;;26.17;19.13;;;;;;;4.69;100.00;101297.38;5029256;28;20230;-47
2022/04/23 03:50:54;;;;;;;22.88;18.00;;;;;;;4.70;100.00;101287.63;5030569;28;20638;-46
2022/04/23 03:53:19;;;;;;;27.63;19.67;;;;;;;4.59;100.00;101289.47;5029456;28;20214;-44
2022/04/23 03:55:45;;;;;;;25.35;19.08;;;;;;;4.61;100.00;101287.69;5030565;28;20183;-45
2022/04/23 03:58:10;;;;;;;24.80;18.70;;;;;;;4.63;100.00;101280.59;5029523;28;20244;-47
2022/04/23 04:00:36;;;;;;;23.05;17.33;;;;;;;4.73;100.00;101290.28;5032327;28;20224;-45
2022/04/23 04:03:02;;;;;;;20.38;17.02;;;;;;;4.72;100.00;101284.09;5043469;28;20186;-46
2022/04/23 04:05:28;;;;;;;19.42;17.13;;;;;;;4.79;100.00;101294.66;5030344;28;20308;-45
2022/04/23 04:07:53;;;;;;;19.35;16.23;;;;;;;4.69;100.00;101280.56;5030456;28;20223;-47
2022/04/23 04:10:21;;;;;;;18.63;15.13;;;;;;;4.70;100.00;101291.19;5035964;28;20179;-45
2022/04/23 04:12:47;;;;;;;18.27;15.77;;;;;;;4.70;100.00;101290.28;5046587;28;20579;-43
2022/04/23 04:15:15;;;;;;;20.02;16.08;;;;;;;4.69;100.00;101283.22;5042025;28;20180;-46
2022/04/23 04:17:42;;;;;;;18.90;15.48;;;;;;;4.66;100.00;101288.56;5049959;28;20570;-45
2022/04/23 04:20:11;;;;;;;18.63;15.00;;;;;;;4.72;100.00;101291.16;5049739;28;20175;-45
2022/04/23 04:22:40;;;;;;;18.70;14.73;;;;;;;4.73;100.00;101300.91;5049995;28;20237;-44
2022/04/23 04:25:07;;;;;;;21.30;16.05;;;;;;;4.80;100.00;101297.31;5050058;28;20567;-45
2022/04/23 04:27:33;;;;;;;16.10;14.38;;;;;;;4.81;100.00;101287.56;5049996;28;20190;-47
2022/04/23 04:30:00;;;;;;;18.20;15.73;;;;;;;4.80;100.00;101289.34;5049759;28;20163;-45
2022/04/23 04:32:25;;;;;;;21.02;16.30;;;;;;;4.69;100.00;101289.41;5049801;28;20630;-46
2022/04/23 04:34:51;;;;;;;18.83;14.98;;;;;;;4.72;100.00;101291.16;5050117;28;20175;-44
2022/04/23 04:37:16;;;;;;;19.08;16.02;;;;;;;4.63;100.00;101284.13;5050175;28;20180;-46
2022/04/23 04:39:42;;;;;;;18.02;15.70;;;;;;;4.66;100.00;101294.75;5050098;28;20191;-45
2022/04/23 04:42:09;;;;;;;18.15;14.75;;;;;;;4.85;100.00;101286.66;5049826;28;20171;-45
2022/04/23 04:44:36;;;;;;;20.20;16.52;;;;;;;4.99;100.00;101291.88;5049927;28;20275;-47
2022/04/23 04:47:09;;;;;;;18.67;14.68;;;;;;;5.42;100.00;101287.03;5049852;28;20168;-43
2022/04/23 04:49:35;;;;;;;25.17;18.55;;;;;;;5.72;100.00;101275.22;5050006;28;20203;-45
2022/04/23 04:52:01;;;;;;;23.45;18.13;;;;;;;6.09;100.00;101266.84;5049627;28;20233;-46
2022/04/23 04:54:26;;;;;;;25.35;18.83;;;;;;;6.49;100.00;101271.63;5050449;28;20606;-45
2022/04/23 04:56:53;;;;;;;20.15;16.52;;;;;;;6.67;100.00;101275.81;5049640;28;20574;-44
2022/04/23 04:59:20;;;;;;;24.20;17.65;;;;;;;6.72;100.00;101278.41;5049804;28;20215;-46
2022/04/23 05:01:47;;;;;;;21.33;17.25;;;;;;;6.85;99.35;101276.44;5049554;28;20673;-44
2022/04/23 05:04:12;;;;;;;20.30;17.45;;;;;;;7.10;98.86;101275.13;5050397;28;20210;-45
2022/04/23 05:06:38;;;;;;;18.20;16.08;;;;;;;7.02;97.69;101287.72;5049924;28;20552;-47
2022/04/23 05:09:03;;;;;;;24.55;16.58;;;;;;;6.77;97.62;101280.06;5049537;28;20203;-47
2022/04/23 05:11:28;;;;;;;18.23;15.63;;;;;;;7.04;97.71;101285.00;5053676;28;20534;-44
2022/04/23 05:13:54;;;;;;;23.50;16.75;;;;;;;6.86;97.68;101294.16;5052080;28;20206;-45
2022/04/23 05:16:19;;;;;;;22.73;15.93;;;;;;;6.73;97.84;101288.13;5053601;28;20179;-45
2022/04/23 05:18:45;;;;;;;20.08;16.05;;;;;;;6.80;98.48;101279.19;5053464;28;20207;-44
2022/04/23 05:21:11;;;;;;;19.65;15.57;;;;;;;7.19;98.75;101280.31;5053480;28;20657;-44
2022/04/23 05:23:36;;;;;;;24.33;15.63;;;;;;;7.57;98.34;101278.75;5053633;28;20190;-43
2022/04/23 05:26:03;;;;;;;19.80;14.15;;;;;;;7.83;96.47;101269.38;5053743;28;20538;-46
2022/04/23 05:28:29;;;;;;;15.15;12.88;;;;;;;7.64;95.50;101282.16;5053059;28;20187;-46
2022/04/23 05:30:54;;;;;;;19.10;14.18;;;;;;;7.74;95.19;101275.75;5053460;28;20183;-45
2022/04/23 05:33:20;;;;;;;21.65;14.13;;;;;;;7.68;95.67;101278.53;5053599;28;20497;-45
2022/04/23 05:35:45;;;;;;;23.40;13.38;;;;;;;7.33;96.14;101285.41;5053212;28;20198;-46
2022/04/23 05:38:11;;;;;;;18.05;12.40;;;;;;;7.59;96.61;101292.94;5053182;28;20264;-46
2022/04/23 05:40:36;;;;;;;17.70;12.57;;;;;;;7.72;96.71;101295.34;5053246;28;20612;-46
2022/04/23 05:43:02;;;;;;;15.98;10.85;;;;;;;7.74;96.65;101290.88;5053610;28;20547;-44
2022/04/23 05:45:29;;;;;;;14.13;11.43;;;;;;;8.23;95.80;101285.44;5052669;28;20496;-44
2022/04/23 05:47:56;;;;;;;16.27;11.13;;;;;;;8.36;93.80;101283.38;5053330;28;20196;-44
2022/04/23 05:50:22;;;;;;;18.20;10.23;;;;;;;8.55;93.50;101291.00;5051784;28;20175;-45
2022/04/23 05:52:47;;;;;;;16.40;10.95;;;;;;;8.70;93.30;101284.44;5052985;28;20199;-45
2022/04/23 05:55:13;;;;;;;16.33;10.80;;;;;;;8.33;93.35;101290.56;5052873;28;20230;-47
2022/04/23 05:57:39;;;;;;;17.40;10.68;;;;;;;8.42;94.33;101293.97;5052943;28;20195;-47
2022/04/23 06:00:07;;;;;;;16.20;10.27;;;;;;;8.53;94.33;101292.84;5053121;28;20265;-46
2022/04/23 06:02:37;;;;;;;15.02;10.07;;;;;;;8.92;92.90;101287.47;5051528;28;20631;-45
2022/04/23 06:05:03;;;;;;;11.50;9.57;;;;;;;9.16;91.48;101294.91;5052774;28;20183;-43
2022/04/23 06:07:29;;;;;;;17.27;10.55;;;;;;;8.33;92.11;101298.56;5052743;28;20272;-46
2022/04/23 06:09:55;;;;;;;10.68;9.13;;;;;;;7.77;93.54;101296.16;5041210;28;20187;-44
2022/04/23 06:12:20;;;;;;;20.63;10.60;;;;;;;7.78;95.41;101301.47;5031882;28;20534;-43
2022/04/23 06:14:46;;;;;;;13.65;9.65;;;;;;;8.37;95.34;101297.59;5032867;28;20259;-45
2022/04/23 06:17:12;;;;;;;18.27;10.75;;;;;;;8.54;94.46;101306.16;5031232;28;20276;-44
2022/04/23 06:19:39;;;;;;;15.98;10.38;;;;;;;8.10;94.69;101315.94;5032680;28;20731;-46
2022/04/23 06:22:05;;;;;;;17.50;10.63;;;;;;;7.98;95.71;101316.19;5031187;28;20175;-44
2022/04/23 06:24:31;;;;;;;17.55;11.20;;;;;;;7.91;95.48;101325.22;5032769;28;20277;-46
2022/04/23 06:26:57;;;;;;;21.20;10.27;;;;;;;8.64;95.92;101307.72;5030849;28;20176;-45
2022/04/23 06:29:22;;;;;;;14.05;10.02;;;;;;;8.75;93.89;101322.63;5032485;28;20216;-44
2022/04/23 06:31:48;;;;;;;16.52;10.25;;;;;;;8.62;93.88;101322.91;5032132;28;20180;-46
2022/04/23 06:34:13;;;;;;;14.32;10.65;;;;;;;8.20;93.72;101328.22;5032270;28;20279;-45
2022/04/23 06:36:40;;;;;;;18.42;10.98;;;;;;;7.94;94.49;101328.72;5032484;28;20184;-46
2022/04/23 06:39:06;;;;;;;18.65;11.00;;;;;;;7.96;95.46;101324.25;5030708;28;20212;-45
2022/04/23 06:41:31;;;;;;;14.35;11.05;;;;;;;7.75;95.83;101320.19;5031865;28;20703;-47
2022/04/23 06:43:56;;;;;;;16.63;11.50;;;;;;;7.75;96.83;101335.31;5032087;28;20176;-44
2022/04/23 06:46:22;;;;;;;14.75;10.98;;;;;;;7.90;96.84;101326.16;5032071;28;20653;-43
2022/04/23 06:48:47;;;;;;;17.25;10.73;;;;;;;8.11;96.25;101322.16;5031796;28;20235;-45
2022/04/23 06:51:13;;;;;;;16.70;11.73;;;;;;;7.86;96.40;101316.44;5031768;28;20187;-44
2022/04/23 06:53:38;;;;;;;18.52;11.57;;;;;;;7.91;96.42;101309.22;5031916;28;20239;-45
2022/04/23 06:56:04;;;;;;;16.50;12.43;;;;;;;8.02;97.02;101315.22;5031583;28;20666;-44
2022/04/23 06:58:30;;;;;;;18.15;11.70;;;;;;;8.51;96.15;101316.91;5031800;28;20538;-44
2022/04/23 07:00:56;;;;;;;17.25;10.32;;;;;;;8.86;94.16;101312.56;5032120;28;20171;-45
2022/04/23 07:03:21;;;;;;;13.85;10.95;;;;;;;9.36;92.74;101313.13;5031844;28;20188;-43
2022/04/23 07:05:47;;;;;;;13.25;10.60;;;;;;;9.28;90.92;101305.28;5031654;28;20187;-45
2022/04/23 07:08:12;;;;;;;14.98;9.98;;;;;;;9.64;88.33;101309.72;5031719;28;20246;-44
2022/04/23 07:10:38;;;;;;;15.57;9.25;;;;;;;10.06;87.13;101307.69;5030952;28;20195;-46
2022/04/23 07:13:04;;;;;;;15.55;9.70;;;;;;;9.81;86.86;101299.44;5031416;28;20184;-46
2022/04/23 07:15:30;;;;;;;15.63;9.77;;;;;;;9.95;85.57;101301.75;5031456;28;20207;-44
2022/04/23 07:17:56;;;;;;;12.90;9.30;;;;;;;10.84;84.51;101309.81;5031428;28;20223;-45
2022/04/23 07:20:21;;;;;;;17.05;9.27;;;;;;;10.67;82.91;101302.34;5031612;28;20237;-45
2022/04/23 07:25:33;;;;;;;13.70;9.55;;;;;;;10.31;83.76;101315.91;5031174;28;20226;-46
2022/04/23 07:27:59;;;;;;;12.98;9.00;;;;;;;10.89;82.25;101317.75;5031491;28;20640;-44
2022/04/23 07:30:26;;;;;;;15.32;9.93;;;;;;;10.73;82.41;101306.59;5031137;28;20298;-47
2022/04/23 07:32:55;;;;;;;14.30;9.40;;;;;;;10.33;83.01;101313.19;5030875;28;20184;-43
2022/04/23 07:38:11;;;;;;;12.52;9.52;;;;;;;10.41;84.05;101311.16;5030830;28;20827;-45
2022/04/23 07:40:40;;;;;;;15.73;9.50;;;;;;;10.89;82.84;101310.56;5030802;28;20184;-46
2022/04/23 07:43:13;;;;;;;13.45;8.25;;;;;;;11.53;80.35;101295.94;5030866;28;20184;-46
2022/04/23 07:45:40;;;;;;;12.75;8.25;;;;;;;11.33;79.98;101307.38;5030950;28;20160;-46
2022/04/23 07:48:07;;;;;;;11.65;8.18;;;;;;;11.02;80.99;101311.06;5029377;28;20291;-44
2022/04/23 07:50:33;;;;;;;11.50;7.53;;;;;;;11.23;80.53;101300.53;5030793;28;20238;-45
2022/04/23 07:52:58;;;;;;;10.60;8.15;;;;;;;10.58;81.28;101307.94;5030801;28;20202;-45
2022/04/23 07:55:24;;;;;;;9.82;7.53;;;;;;;11.78;80.02;101295.94;5030553;28;20188;-45
2022/04/23 07:57:49;;;;;;;12.55;8.82;;;;;;;11.48;77.16;101312.22;5030407;28;20208;-45
2022/04/23 08:00:15;;;;;;;10.57;7.28;;;;;;;11.26;78.41;101319.19;5030832;28;20179;-45
2022/04/23 08:02:40;;;;;;;11.45;7.45;;;;;;;11.90;77.56;101308.97;5030283;28;20218;-45
2022/04/23 08:05:09;;;;;;;10.13;7.55;;;;;;;11.95;75.82;101312.34;5029292;28;20211;-41
2022/04/23 08:07:34;;;;;;;12.80;7.90;;;;;;;11.43;77.55;101313.28;5030264;28;20179;-43
2022/04/23 08:10:02;;;;;;;10.70;8.00;;;;;;;10.51;80.46;101322.47;5041146;28;20187;-44
2022/04/23 08:12:28;;;;;;;13.98;7.50;;;;;;;11.08;79.86;101316.19;5050371;28;20579;-46
2022/04/23 08:14:53;;;;;;;9.77;6.65;;;;;;;11.43;77.56;101316.84;5050121;28;20175;-43
2022/04/23 08:17:18;;;;;;;13.93;7.93;;;;;;;11.29;76.83;101317.31;5049950;28;20190;-45
2022/04/23 08:19:44;;;;;;;9.32;6.85;;;;;;;11.93;76.89;101303.47;5049929;28;20286;-45
2022/04/23 08:22:09;;;;;;;10.20;7.40;;;;;;;11.80;77.55;101302.13;5049872;28;20178;-42
2022/04/23 08:24:34;;;;;;;10.77;8.00;;;;;;;11.30;77.30;101302.09;5049920;28;20264;-44
2022/04/23 08:27:00;;;;;;;8.40;6.80;;;;;;;11.38;78.01;101302.72;5050209;28;20173;-45
2022/04/23 08:32:09;;;;;;;14.10;7.65;;;;;;;11.89;78.79;101298.28;5049770;28;20167;-44
2022/04/23 08:34:34;;;;;;;14.73;7.60;;;;;;;12.04;77.46;101305.78;5049897;28;20573;-44
2022/04/23 08:37:00;;;;;;;10.93;7.40;;;;;;;11.32;78.75;101302.91;5050103;28;20187;-45
2022/04/23 08:39:26;;;;;;;10.70;6.88;;;;;;;12.02;78.11;101296.03;5049876;28;20211;-43
2022/04/23 08:41:51;;;;;;;11.75;8.20;;;;;;;11.48;78.36;101298.78;5049560;28;20193;-45
2022/04/23 08:44:16;;;;;;;11.18;7.85;;;;;;;11.70;78.09;101308.78;5053425;28;20533;-46
2022/04/23 08:46:42;;;;;;;12.18;7.82;;;;;;;11.21;79.34;101302.41;5054943;28;20232;-44
2022/04/23 08:49:09;;;;;;;10.68;8.30;;;;;;;11.52;78.78;101302.22;5056676;28;20194;-43
2022/04/23 08:51:35;;;;;;;10.35;7.65;;;;;;;11.90;79.03;101298.22;5056149;28;20552;-44
2022/04/23 08:54:13;;;;;;;11.40;7.85;;;;;;;11.22;78.08;101305.03;5056502;28;20199;-43
2022/04/23 08:56:41;;;;;;;10.23;8.00;;;;;;;11.31;78.71;101299.34;5056501;28;20185;-48
2022/04/23 08:59:08;;;;;;;12.68;8.25;;;;;;;11.71;77.72;101287.22;5056276;28;20206;-48
2022/04/23 09:01:36;;;;;;;11.20;7.78;;;;;;;11.77;77.68;101301.38;5056267;28;20257;-48
2022/04/23 09:04:03;;;;;;;13.27;8.18;;;;;;;11.86;77.54;101303.75;5056424;28;20178;-49
2022/04/23 09:06:38;;;;;;;10.90;7.40;;;;;;;12.19;76.46;101307.03;5056141;28;20256;-48
2022/04/23 09:09:13;;;;;;;10.00;7.05;;;;;;;12.14;77.00;101293.75;5055867;28;20198;-48
2022/04/23 09:11:40;;;;;;;10.95;7.88;;;;;;;11.18;77.30;101303.38;5055634;28;20198;-47
2022/04/23 09:14:08;;;;;;;12.05;7.93;;;;;;;12.10;77.31;101293.94;5055994;28;20544;-48
2022/04/23 09:25:11;;;;;;;12.57;8.05;;;;;;;13.01;72.11;101291.28;5056288;28;20244;-49
2022/04/23 09:27:37;;;;;;;9.20;7.30;;;;;;;12.02;74.50;101285.28;5055611;28;20674;-48
2022/04/23 09:30:08;;;;;;;11.40;7.88;;;;;;;11.53;76.65;101283.41;5056091;28;20255;-48
2022/04/23 09:32:35;;;;;;;14.15;8.50;;;;;;;11.47;78.36;101291.66;5054453;28;20186;-46
2022/04/23 09:35:09;;;;;;;13.98;8.07;;;;;;;11.31;79.28;101298.50;5055935;28;20241;-48
2022/04/23 09:40:21;;;;;;;11.45;8.68;;;;;;;11.63;76.14;101301.84;5055617;28;20172;-47
2022/04/23 09:43:23;;;;;;;15.07;8.40;;;;;;;11.89;75.38;101291.09;5055539;28;20179;-50
2022/04/23 09:46:03;;;;;;;10.55;7.93;;;;;;;12.61;74.51;101274.06;5052169;28;20213;-49
2022/04/23 09:48:29;;;;;;;13.02;8.77;;;;;;;11.97;75.32;101279.22;5054486;28;20289;-47
2022/04/23 09:50:55;;;;;;;10.60;8.50;;;;;;;12.55;75.27;101279.66;5055463;28;20204;-48
2022/04/23 09:53:21;;;;;;;10.05;8.10;;;;;;;12.37;74.30;101278.56;5055505;28;20202;-47
2022/04/23 09:55:50;;;;;;;10.45;8.88;;;;;;;12.08;73.72;101269.81;5052753;28;20551;-47
2022/04/23 09:58:19;;;;;;;12.80;8.98;;;;;;;12.47;73.73;101276.41;5052364;28;20677;-48
2022/04/23 10:00:47;;;;;;;15.73;9.38;;;;;;;12.57;72.91;101272.41;5052500;28;20183;-48
2022/04/23 10:03:14;;;;;;;10.50;9.38;;;;;;;12.46;72.53;101275.56;5044540;28;20284;-48
2022/04/23 10:05:41;;;;;;;13.77;9.05;;;;;;;12.55;73.33;101272.50;5052127;28;20237;-49
2022/04/23 10:08:27;;;;;;;11.20;8.75;;;;;;;12.44;73.29;101269.38;5052410;28;20195;-48
2022/04/23 10:11:00;;;;;;;12.95;9.38;;;;;;;12.50;72.43;101266.41;5051963;28;20281;-45
2022/04/23 10:13:29;;;;;;;11.82;8.90;;;;;;;12.82;72.53;101274.16;5051410;28;20351;-48
2022/04/23 10:15:57;;;;;;;12.35;8.45;;;;;;;12.56;73.38;101260.78;5052099;28;20180;-47
2022/04/23 10:18:23;;;;;;;13.00;8.93;;;;;;;12.13;72.16;101273.22;5067319;28;20260;-47
2022/04/23 10:21:04;;;;;;;10.35;9.10;;;;;;;12.32;73.38;101268.00;5052188;28;20184;-48
2022/04/23 10:23:54;;;;;;;12.93;9.15;;;;;;;12.15;74.07;101270.47;5052186;28;20224;-48
2022/04/23 10:26:32;;;;;;;10.38;9.23;;;;;;;12.27;74.35;101263.75;5051720;28;20171;-47
2022/04/23 10:28:58;;;;;;;12.48;9.02;;;;;;;12.13;73.26;101262.47;5052239;28;20194;-49
2022/04/23 10:31:23;;;;;;;10.55;9.07;;;;;;;12.48;74.83;101260.22;5051708;28;20644;-47
2022/04/23 10:33:51;;;;;;;11.13;8.95;;;;;;;12.88;74.16;101257.75;5052057;28;20179;-48
2022/04/23 10:36:18;;;;;;;11.98;9.10;;;;;;;12.87;72.29;101256.00;5051793;28;20249;-48
2022/04/23 10:38:51;;;;;;;9.80;8.63;;;;;;;12.93;72.12;101255.75;5051643;28;20234;-45
2022/04/23 10:41:18;;;;;;;13.57;9.23;;;;;;;12.88;72.43;101246.97;5051147;28;20597;-48
2022/04/23 10:44:00;;;;;;;12.40;9.48;;;;;;;12.69;73.11;101249.56;5051165;28;20175;-49
2022/04/23 10:46:38;;;;;;;10.98;9.10;;;;;;;12.48;73.64;101245.91;5051518;28;20591;-47
2022/04/23 10:49:20;;;;;;;14.45;9.38;;;;;;;12.83;74.23;101249.00;5051831;28;20282;-47
2022/04/23 10:52:04;;;;;;;15.48;10.77;;;;;;;12.05;76.03;101247.59;5051307;28;20549;-48
2022/04/23 10:54:45;;;;;;;17.17;9.43;;;;;;;12.67;74.46;101252.31;5051834;28;20207;-49
2022/04/23 10:57:13;;;;;;;12.82;9.68;;;;;;;13.19;72.01;101242.09;5051524;28;20624;-47
2022/04/23 10:59:47;;;;;;;14.10;10.32;;;;;;;12.00;74.98;101244.19;5051284;28;20302;-46
2022/04/23 11:02:19;;;;;;;15.27;11.55;;;;;;;12.20;75.55;101241.63;5051090;28;20178;-48
2022/04/23 11:13:30;;;;;;;13.57;10.52;;;;;;;13.19;71.58;101236.69;5051375;28;20179;-49
2022/04/23 11:16:16;;;;;;;15.48;11.30;;;;;;;12.94;72.37;101242.25;5050986;28;20249;-49
2022/04/23 11:18:46;;;;;;;16.40;11.68;;;;;;;12.91;72.70;101228.06;5050703;28;20222;-47
2022/04/23 11:21:26;;;;;;;12.68;10.55;;;;;;;12.86;72.42;101230.94;5050652;28;20175;-49
2022/04/23 11:23:53;;;;;;;14.70;11.20;;;;;;;12.42;72.89;101232.72;5051280;28;20186;-48
2022/04/23 11:26:38;;;;;;;15.20;11.48;;;;;;;11.95;73.67;101239.84;5050968;28;20236;-46
2022/04/23 11:29:04;;;;;;;12.55;10.57;;;;;;;12.73;73.79;101227.88;5050927;28;20753;-47
2022/04/23 11:31:29;;;;;;;17.70;11.77;;;;;;;12.85;71.78;101228.31;5050960;28;20167;-50
2022/04/23 11:33:57;;;;;;;13.43;11.45;;;;;;;12.61;72.37;101220.28;5050713;28;20624;-49
2022/04/23 11:36:27;;;;;;;13.40;11.18;;;;;;;12.90;69.96;101221.81;5051070;28;20216;-51
2022/04/23 11:38:55;;;;;;;14.15;10.68;;;;;;;13.16;72.05;101212.63;5050481;28;20631;-51
2022/04/23 11:41:34;;;;;;;16.05;11.10;;;;;;;13.57;69.46;101207.25;5050541;28;20643;-48
2022/04/23 11:44:20;;;;;;;13.82;11.07;;;;;;;13.30;69.68;101208.50;5050719;28;20278;-50
2022/04/23 11:46:54;;;;;;;14.65;11.52;;;;;;;13.23;69.51;101209.66;5032771;28;20286;-47
2022/04/23 11:49:26;;;;;;;13.00;10.85;;;;;;;13.16;70.72;101200.97;5050448;28;20202;-50
2022/04/23 11:52:03;;;;;;;14.07;11.40;;;;;;;12.34;69.37;101211.53;5050171;28;20290;-47
2022/04/23 11:54:42;;;;;;;15.68;11.85;;;;;;;12.79;69.05;101199.88;5050408;28;20266;-49
2022/04/23 11:57:12;;;;;;;13.73;11.73;;;;;;;12.48;68.31;101206.47;5050471;28;20497;-48
2022/04/23 11:59:39;;;;;;;12.85;11.45;;;;;;;12.99;69.27;101205.28;5050212;28;20610;-51